sensor_id;sensor_type;location;lat;lon;timestamp;pressure;altitude;pressure_sealevel;temperature;humidity
19676;BME280;39539;52.202;9.876;2023-01-08T00:00:47;99703.72;;;8.42;100.00
19676;BME280;39539;52.202;9.876;2023-01-08T00:03:13;99713.66;;;8.47;100.00
19676;BME280;39539;52.202;9.876;2023-01-08T00:05:38;99703.72;;;8.42;100.00
19676;BME280;39539;52.202;9.876;2023-01-08T00:08:04;99720.38;;;8.49;100.00
19676;BME280;39539;52.202;9.876;2023-01-08T00:10:32;99708.41;;;8.40;100.00
19676;BME280;39539;52.202;9.876;2023-01-08T00:12:58;99708.66;;;8.32;100.00
19676;BME280;39539;52.202;9.876;2023-01-08T00:15:23;99700.88;;;8.44;100.00
19676;BME280;39539;52.202;9.876;2023-01-08T00:17:48;99678.03;;;8.43;100.00
19676;BME280;39539;52.202;9.876;2023-01-08T00:20:14;99693.72;;;8.44;100.00
19676;BME280;39539;52.202;9.876;2023-01-08T00:22:39;99704.25;;;8.51;100.00
19676;BME280;39539;52.202;9.876;2023-01-08T00:25:05;99697.88;;;8.59;100.00
19676;BME280;39539;52.202;9.876;2023-01-08T00:27:30;99689.66;;;8.67;100.00
19676;BME280;39539;52.202;9.876;2023-01-08T00:29:56;99688.44;;;8.63;100.00
19676;BME280;39539;52.202;9.876;2023-01-08T00:32:21;99706.00;;;8.64;100.00
19676;BME280;39539;52.202;9.876;2023-01-08T00:34:46;99715.22;;;8.54;100.00
19676;BME280;39539;52.202;9.876;2023-01-08T00:37:12;99713.00;;;8.51;100.00
19676;BME280;39539;52.202;9.876;2023-01-08T00:39:38;99709.38;;;8.46;100.00
19676;BME280;39539;52.202;9.876;2023-01-08T00:42:03;99710.41;;;8.45;100.00
19676;BME280;39539;52.202;9.876;2023-01-08T00:44:28;99700.69;;;8.32;100.00
19676;BME280;39539;52.202;9.876;2023-01-08T00:46:54;99721.03;;;8.38;100.00
19676;BME280;39539;52.202;9.876;2023-01-08T00:49:19;99708.81;;;8.37;100.00
19676;BME280;39539;52.202;9.876;2023-01-08T00:51:44;99701.31;;;8.34;100.00
19676;BME280;39539;52.202;9.876;2023-01-08T00:54:10;99705.00;;;8.33;100.00
19676;BME280;39539;52.202;9.876;2023-01-08T00:56:36;99703.75;;;8.36;100.00
19676;BME280;39539;52.202;9.876;2023-01-08T00:59:01;99696.72;;;8.23;100.00
19676;BME280;39539;52.202;9.876;2023-01-08T01:01:26;99702.25;;;8.15;100.00
19676;BME280;39539;52.202;9.876;2023-01-08T01:03:52;99680.78;;;8.04;100.00
19676;BME280;39539;52.202;9.876;2023-01-08T01:06:17;99709.34;;;8.21;100.00
19676;BME280;39539;52.202;9.876;2023-01-08T01:08:43;99680.81;;;8.23;100.00
19676;BME280;39539;52.202;9.876;2023-01-08T01:11:21;99684.75;;;8.45;100.00
19676;BME280;39539;52.202;9.876;2023-01-08T01:13:47;99684.47;;;8.53;100.00
19676;BME280;39539;52.202;9.876;2023-01-08T01:16:12;99681.75;;;8.60;100.00
19676;BME280;39539;52.202;9.876;2023-01-08T01:18:38;99663.59;;;8.64;100.00
19676;BME280;39539;52.202;9.876;2023-01-08T01:21:12;99672.34;;;8.64;100.00
19676;BME280;39539;52.202;9.876;2023-01-08T01:23:42;99663.47;;;8.52;100.00
19676;BME280;39539;52.202;9.876;2023-01-08T01:26:15;99679.50;;;8.64;100.00
19676;BME280;39539;52.202;9.876;2023-01-08T01:28:41;99667.81;;;8.46;100.00
19676;BME280;39539;52.202;9.876;2023-01-08T01:31:09;99666.13;;;8.52;100.00
19676;BME280;39539;52.202;9.876;2023-01-08T01:33:36;99673.06;;;8.53;100.00
19676;BME280;39539;52.202;9.876;2023-01-08T01:36:02;99678.00;;;8.49;100.00
19676;BME280;39539;52.202;9.876;2023-01-08T01:38:28;99684.53;;;8.47;100.00
19676;BME280;39539;52.202;9.876;2023-01-08T01:40:53;99677.16;;;8.49;100.00
19676;BME280;39539;52.202;9.876;2023-01-08T01:43:37;99672.63;;;8.56;100.00
19676;BME280;39539;52.202;9.876;2023-01-08T01:46:21;99686.41;;;8.65;100.00
19676;BME280;39539;52.202;9.876;2023-01-08T01:48:50;99693.72;;;8.69;100.00
19676;BME280;39539;52.202;9.876;2023-01-08T01:51:18;99679.09;;;8.60;100.00
19676;BME280;39539;52.202;9.876;2023-01-08T01:53:44;99684.47;;;8.53;100.00
19676;BME280;39539;52.202;9.876;2023-01-08T01:56:09;99682.16;;;8.64;100.00
19676;BME280;39539;52.202;9.876;2023-01-08T01:58:35;99679.50;;;8.64;100.00
19676;BME280;39539;52.202;9.876;2023-01-08T02:01:03;99673.88;;;8.53;100.00
19676;BME280;39539;52.202;9.876;2023-01-08T02:03:34;99667.25;;;8.44;100.00
19676;BME280;39539;52.202;9.876;2023-01-08T02:11:21;99657.13;;;8.78;100.00
19676;BME280;39539;52.202;9.876;2023-01-08T02:13:55;99653.75;;;8.89;100.00
19676;BME280;39539;52.202;9.876;2023-01-08T02:16:49;99647.25;;;8.85;100.00
19676;BME280;39539;52.202;9.876;2023-01-08T02:19:21;99636.97;;;8.59;100.00
19676;BME280;39539;52.202;9.876;2023-01-08T02:24:40;99659.50;;;8.43;100.00
19676;BME280;39539;52.202;9.876;2023-01-08T02:27:10;99661.88;;;8.51;100.00
19676;BME280;39539;52.202;9.876;2023-01-08T02:29:37;99654.28;;;8.54;100.00
19676;BME280;39539;52.202;9.876;2023-01-08T02:32:03;99656.16;;;8.54;100.00
19676;BME280;39539;52.202;9.876;2023-01-08T02:34:29;99649.84;;;8.55;100.00
19676;BME280;39539;52.202;9.876;2023-01-08T02:36:56;99653.38;;;8.67;100.00
19676;BME280;39539;52.202;9.876;2023-01-08T02:42:05;99653.84;;;8.58;100.00
19676;BME280;39539;52.202;9.876;2023-01-08T02:47:44;99658.75;;;8.61;100.00
19676;BME280;39539;52.202;9.876;2023-01-08T02:52:45;99652.13;;;8.70;100.00
19676;BME280;39539;52.202;9.876;2023-01-08T02:55:12;99655.22;;;8.67;100.00
19676;BME280;39539;52.202;9.876;2023-01-08T02:57:39;99655.66;;;8.64;100.00
19676;BME280;39539;52.202;9.876;2023-01-08T03:00:05;99656.63;;;8.69;100.00
19676;BME280;39539;52.202;9.876;2023-01-08T03:02:31;99663.72;;;8.69;100.00
19676;BME280;39539;52.202;9.876;2023-01-08T03:05:04;99669.19;;;8.74;100.00
19676;BME280;39539;52.202;9.876;2023-01-08T03:07:32;99659.19;;;8.76;100.00
19676;BME280;39539;52.202;9.876;2023-01-08T03:09:58;99668.63;;;8.90;100.00
19676;BME280;39539;52.202;9.876;2023-01-08T03:12:30;99654.41;;;8.85;100.00
19676;BME280;39539;52.202;9.876;2023-01-08T03:15:06;99660.50;;;8.85;100.00
19676;BME280;39539;52.202;9.876;2023-01-08T03:17:36;99667.44;;;8.86;100.00
19676;BME280;39539;52.202;9.876;2023-01-08T03:20:09;99675.59;;;8.85;100.00
19676;BME280;39539;52.202;9.876;2023-01-08T03:22:39;99672.59;;;8.81;100.00
19676;BME280;39539;52.202;9.876;2023-01-08T03:25:06;99666.09;;;8.77;100.00
19676;BME280;39539;52.202;9.876;2023-01-08T03:27:36;99659.34;;;8.81;100.00
19676;BME280;39539;52.202;9.876;2023-01-08T03:30:04;99655.06;;;8.80;100.00
19676;BME280;39539;52.202;9.876;2023-01-08T03:32:31;99651.59;;;8.80;100.00
19676;BME280;39539;52.202;9.876;2023-01-08T03:34:58;99644.06;;;8.83;100.00
19676;BME280;39539;52.202;9.876;2023-01-08T03:37:29;99631.75;;;8.70;100.00
19676;BME280;39539;52.202;9.876;2023-01-08T03:40:05;99629.28;;;8.69;100.00
19676;BME280;39539;52.202;9.876;2023-01-08T03:42:33;99635.78;;;8.73;100.00
19676;BME280;39539;52.202;9.876;2023-01-08T03:44:59;99625.91;;;8.62;100.00
19676;BME280;39539;52.202;9.876;2023-01-08T03:47:28;99629.44;;;8.56;100.00
19676;BME280;39539;52.202;9.876;2023-01-08T03:49:55;99618.84;;;8.56;100.00
19676;BME280;39539;52.202;9.876;2023-01-08T03:52:26;99626.38;;;8.59;100.00
19676;BME280;39539;52.202;9.876;2023-01-08T03:54:53;99617.44;;;8.53;100.00
19676;BME280;39539;52.202;9.876;2023-01-08T03:57:18;99621.28;;;8.57;100.00
19676;BME280;39539;52.202;9.876;2023-01-08T03:59:44;99616.28;;;8.67;100.00
19676;BME280;39539;52.202;9.876;2023-01-08T04:02:09;99608.09;;;8.69;100.00
19676;BME280;39539;52.202;9.876;2023-01-08T04:04:35;99616.59;;;8.77;100.00
19676;BME280;39539;52.202;9.876;2023-01-08T04:07:00;99624.47;;;8.84;100.00
19676;BME280;39539;52.202;9.876;2023-01-08T04:09:26;99616.19;;;8.74;100.00
19676;BME280;39539;52.202;9.876;2023-01-08T04:11:51;99617.41;;;8.78;100.00
19676;BME280;39539;52.202;9.876;2023-01-08T04:14:16;99624.22;;;8.86;100.00
19676;BME280;39539;52.202;9.876;2023-01-08T04:16:43;99625.31;;;8.96;100.00
19676;BME280;39539;52.202;9.876;2023-01-08T04:19:10;99626.53;;;9.01;100.00
19676;BME280;39539;52.202;9.876;2023-01-08T04:21:35;99613.13;;;8.95;100.00
19676;BME280;39539;52.202;9.876;2023-01-08T04:24:00;99593.63;;;8.90;100.00
19676;BME280;39539;52.202;9.876;2023-01-08T04:26:26;99601.63;;;9.02;100.00
19676;BME280;39539;52.202;9.876;2023-01-08T04:28:51;99597.72;;;9.04;100.00
19676;BME280;39539;52.202;9.876;2023-01-08T04:31:16;99594.25;;;9.04;100.00
19676;BME280;39539;52.202;9.876;2023-01-08T04:33:42;99584.91;;;9.01;100.00
19676;BME280;39539;52.202;9.876;2023-01-08T04:36:07;99586.00;;;9.12;100.00
19676;BME280;39539;52.202;9.876;2023-01-08T04:38:33;99585.88;;;9.07;100.00
19676;BME280;39539;52.202;9.876;2023-01-08T04:40:59;99586.88;;;9.06;100.00
19676;BME280;39539;52.202;9.876;2023-01-08T04:43:25;99586.31;;;9.04;100.00
19676;BME280;39539;52.202;9.876;2023-01-08T04:45:51;99575.72;;;8.85;100.00
19676;BME280;39539;52.202;9.876;2023-01-08T04:48:16;99587.13;;;8.86;100.00
19676;BME280;39539;52.202;9.876;2023-01-08T04:50:42;99593.69;;;8.83;100.00
19676;BME280;39539;52.202;9.876;2023-01-08T04:53:07;99585.97;;;8.82;100.00
19676;BME280;39539;52.202;9.876;2023-01-08T04:55:32;99580.22;;;8.85;100.00
19676;BME280;39539;52.202;9.876;2023-01-08T04:57:58;99568.50;;;8.74;100.00
19676;BME280;39539;52.202;9.876;2023-01-08T05:00:24;99579.06;;;8.81;100.00
19676;BME280;39539;52.202;9.876;2023-01-08T05:02:49;99565.22;;;8.79;100.00
19676;BME280;39539;52.202;9.876;2023-01-08T05:05:14;99574.19;;;8.77;100.00
19676;BME280;39539;52.202;9.876;2023-01-08T05:07:40;99573.38;;;8.77;100.00
19676;BME280;39539;52.202;9.876;2023-01-08T05:10:05;99577.50;;;8.73;100.00
19676;BME280;39539;52.202;9.876;2023-01-08T05:12:31;99579.34;;;8.72;100.00
19676;BME280;39539;52.202;9.876;2023-01-08T05:14:56;99574.84;;;8.73;100.00
19676;BME280;39539;52.202;9.876;2023-01-08T05:17:21;99574.41;;;8.76;100.00
19676;BME280;39539;52.202;9.876;2023-01-08T05:19:47;99568.50;;;8.74;100.00
19676;BME280;39539;52.202;9.876;2023-01-08T05:22:12;99564.97;;;8.80;100.00
19676;BME280;39539;52.202;9.876;2023-01-08T05:24:37;99566.81;;;8.80;100.00
19676;BME280;39539;52.202;9.876;2023-01-08T05:27:03;99562.19;;;8.75;100.00
19676;BME280;39539;52.202;9.876;2023-01-08T05:29:28;99567.63;;;8.80;100.00
19676;BME280;39539;52.202;9.876;2023-01-08T05:31:53;99566.91;;;8.73;100.00
19676;BME280;39539;52.202;9.876;2023-01-08T05:34:19;99557.84;;;8.81;100.00
19676;BME280;39539;52.202;9.876;2023-01-08T05:36:44;99561.25;;;8.69;100.00
19676;BME280;39539;52.202;9.876;2023-01-08T05:39:09;99569.31;;;8.74;100.00
19676;BME280;39539;52.202;9.876;2023-01-08T05:41:35;99558.00;;;8.67;100.00
19676;BME280;39539;52.202;9.876;2023-01-08T05:44:00;99563.38;;;8.61;100.00
19676;BME280;39539;52.202;9.876;2023-01-08T05:46:26;99562.34;;;8.62;100.00
19676;BME280;39539;52.202;9.876;2023-01-08T05:48:51;99557.66;;;8.64;100.00
19676;BME280;39539;52.202;9.876;2023-01-08T05:51:16;99566.16;;;8.66;100.00
19676;BME280;39539;52.202;9.876;2023-01-08T05:53:42;99570.28;;;8.62;100.00
19676;BME280;39539;52.202;9.876;2023-01-08T05:56:09;99552.56;;;8.44;100.00
19676;BME280;39539;52.202;9.876;2023-01-08T05:58:36;99572.28;;;8.48;100.00
19676;BME280;39539;52.202;9.876;2023-01-08T06:01:12;99574.72;;;8.49;100.00
19676;BME280;39539;52.202;9.876;2023-01-08T06:03:40;99565.81;;;8.44;100.00
19676;BME280;39539;52.202;9.876;2023-01-08T06:06:07;99574.13;;;8.47;100.00
19676;BME280;39539;52.202;9.876;2023-01-08T06:08:33;99570.50;;;8.42;100.00
19676;BME280;39539;52.202;9.876;2023-01-08T06:10:59;99565.81;;;8.44;100.00
19676;BME280;39539;52.202;9.876;2023-01-08T06:13:25;99563.81;;;8.39;100.00
19676;BME280;39539;52.202;9.876;2023-01-08T06:15:51;99555.53;;;8.29;100.00
19676;BME280;39539;52.202;9.876;2023-01-08T06:18:16;99571.75;;;8.39;100.00
19676;BME280;39539;52.202;9.876;2023-01-08T06:20:42;99563.03;;;8.32;100.00
19676;BME280;39539;52.202;9.876;2023-01-08T06:23:07;99566.94;;;8.29;100.00
19676;BME280;39539;52.202;9.876;2023-01-08T06:25:33;99559.22;;;8.28;100.00
19676;BME280;39539;52.202;9.876;2023-01-08T06:27:59;99566.50;;;8.32;100.00
19676;BME280;39539;52.202;9.876;2023-01-08T06:30:24;99564.22;;;8.36;100.00
19676;BME280;39539;52.202;9.876;2023-01-08T06:32:54;99552.44;;;8.32;100.00
19676;BME280;39539;52.202;9.876;2023-01-08T06:35:20;99565.69;;;8.32;100.00
19676;BME280;39539;52.202;9.876;2023-01-08T06:37:45;99565.69;;;8.32;100.00
19676;BME280;39539;52.202;9.876;2023-01-08T06:40:10;99557.28;;;8.17;100.00
19676;BME280;39539;52.202;9.876;2023-01-08T06:42:36;99560.09;;;8.22;100.00
19676;BME280;39539;52.202;9.876;2023-01-08T06:45:01;99572.44;;;8.28;100.00
19676;BME280;39539;52.202;9.876;2023-01-08T06:47:26;99577.09;;;8.32;100.00
19676;BME280;39539;52.202;9.876;2023-01-08T06:49:52;99569.38;;;8.31;100.00
19676;BME280;39539;52.202;9.876;2023-01-08T06:52:18;99576.88;;;8.34;100.00
19676;BME280;39539;52.202;9.876;2023-01-08T06:54:44;99571.81;;;8.32;100.00
19676;BME280;39539;52.202;9.876;2023-01-08T06:57:09;99582.59;;;8.31;100.00
19676;BME280;39539;52.202;9.876;2023-01-08T06:59:34;99589.38;;;8.27;100.00
19676;BME280;39539;52.202;9.876;2023-01-08T07:01:59;99589.22;;;8.22;100.00
19676;BME280;39539;52.202;9.876;2023-01-08T07:04:25;99590.19;;;8.02;100.00
19676;BME280;39539;52.202;9.876;2023-01-08T07:06:50;99588.34;;;8.03;100.00
19676;BME280;39539;52.202;9.876;2023-01-08T07:09:15;99584.84;;;7.84;100.00
19676;BME280;39539;52.202;9.876;2023-01-08T07:11:41;99602.94;;;7.87;100.00
19676;BME280;39539;52.202;9.876;2023-01-08T07:14:06;99609.69;;;7.83;100.00
19676;BME280;39539;52.202;9.876;2023-01-08T07:16:32;99604.22;;;7.78;100.00
19676;BME280;39539;52.202;9.876;2023-01-08T07:18:58;99608.09;;;7.75;100.00
19676;BME280;39539;52.202;9.876;2023-01-08T07:21:23;99595.97;;;7.68;100.00
19676;BME280;39539;52.202;9.876;2023-01-08T07:23:49;99593.09;;;7.69;100.00
19676;BME280;39539;52.202;9.876;2023-01-08T07:26:14;99613.13;;;7.83;100.00
19676;BME280;39539;52.202;9.876;2023-01-08T07:28:40;99605.41;;;7.82;100.00
19676;BME280;39539;52.202;9.876;2023-01-08T07:31:06;99602.16;;;7.80;100.00
19676;BME280;39539;52.202;9.876;2023-01-08T07:33:32;99623.25;;;7.93;100.00
19676;BME280;39539;52.202;9.876;2023-01-08T07:35:57;99617.53;;;7.96;100.00
19676;BME280;39539;52.202;9.876;2023-01-08T07:38:22;99618.69;;;8.00;100.00
19676;BME280;39539;52.202;9.876;2023-01-08T07:40:48;99626.63;;;8.00;100.00
19676;BME280;39539;52.202;9.876;2023-01-08T07:43:14;99629.81;;;8.09;100.00
19676;BME280;39539;52.202;9.876;2023-01-08T07:45:39;99631.28;;;8.05;100.00
19676;BME280;39539;52.202;9.876;2023-01-08T07:48:05;99630.09;;;8.01;100.00
19676;BME280;39539;52.202;9.876;2023-01-08T07:50:31;99623.41;;;7.98;100.00
19676;BME280;39539;52.202;9.876;2023-01-08T07:53:00;99621.50;;;8.05;100.00
19676;BME280;39539;52.202;9.876;2023-01-08T07:55:27;99620.88;;;8.10;100.00
19676;BME280;39539;52.202;9.876;2023-01-08T07:57:53;99632.69;;;8.07;100.00
19676;BME280;39539;52.202;9.876;2023-01-08T08:00:19;99622.91;;;8.08;100.00
19676;BME280;39539;52.202;9.876;2023-01-08T08:02:44;99627.56;;;8.13;100.00
19676;BME280;39539;52.202;9.876;2023-01-08T08:05:10;99623.56;;;8.03;100.00
19676;BME280;39539;52.202;9.876;2023-01-08T08:07:35;99631.91;;;8.07;100.00
19676;BME280;39539;52.202;9.876;2023-01-08T08:10:02;99612.41;;;8.01;100.00
19676;BME280;39539;52.202;9.876;2023-01-08T08:12:27;99613.56;;;8.05;100.00
19676;BME280;39539;52.202;9.876;2023-01-08T08:14:52;99611.00;;;8.24;100.00
19676;BME280;39539;52.202;9.876;2023-01-08T08:17:18;99588.16;;;8.23;100.00
19676;BME280;39539;52.202;9.876;2023-01-08T08:19:43;99608.03;;;8.39;100.00
19676;BME280;39539;52.202;9.876;2023-01-08T08:22:09;99603.84;;;8.49;100.00
19676;BME280;39539;52.202;9.876;2023-01-08T08:24:35;99601.19;;;8.49;100.00
19676;BME280;39539;52.202;9.876;2023-01-08T08:27:00;99606.63;;;8.54;100.00
19676;BME280;39539;52.202;9.876;2023-01-08T08:29:25;99591.25;;;8.63;100.00
19676;BME280;39539;52.202;9.876;2023-01-08T08:31:51;99600.84;;;8.64;100.00
19676;BME280;39539;52.202;9.876;2023-01-08T08:34:16;99595.97;;;8.61;100.00
19676;BME280;39539;52.202;9.876;2023-01-08T08:36:41;99607.66;;;8.53;100.00
19676;BME280;39539;52.202;9.876;2023-01-08T08:39:07;99604.13;;;8.60;100.00
19676;BME280;39539;52.202;9.876;2023-01-08T08:41:32;99603.13;;;8.61;100.00
19676;BME280;39539;52.202;9.876;2023-01-08T08:43:57;99599.19;;;8.63;100.00
19676;BME280;39539;52.202;9.876;2023-01-08T08:46:23;99600.53;;;8.72;100.00
19676;BME280;39539;52.202;9.876;2023-01-08T08:48:49;99589.25;;;8.77;100.00
19676;BME280;39539;52.202;9.876;2023-01-08T08:51:14;99587.66;;;8.76;100.00
19676;BME280;39539;52.202;9.876;2023-01-08T08:53:40;99586.16;;;8.80;100.00
19676;BME280;39539;52.202;9.876;2023-01-08T08:56:05;99573.75;;;8.81;100.00
19676;BME280;39539;52.202;9.876;2023-01-08T08:58:31;99576.53;;;8.86;100.00
19676;BME280;39539;52.202;9.876;2023-01-08T09:01:00;99563.06;;;8.87;100.00
19676;BME280;39539;52.202;9.876;2023-01-08T09:03:27;99571.06;;;8.99;100.00
19676;BME280;39539;52.202;9.876;2023-01-08T09:05:52;99573.50;;;9.01;100.00
19676;BME280;39539;52.202;9.876;2023-01-08T09:08:18;99557.97;;;9.04;100.00
19676;BME280;39539;52.202;9.876;2023-01-08T09:10:43;99578.41;;;9.15;100.00
19676;BME280;39539;52.202;9.876;2023-01-08T09:13:09;99587.53;;;9.19;100.00
19676;BME280;39539;52.202;9.876;2023-01-08T09:15:36;99572.50;;;9.43;100.00
19676;BME280;39539;52.202;9.876;2023-01-08T09:18:01;99569.09;;;9.66;100.00
19676;BME280;39539;52.202;9.876;2023-01-08T09:20:28;99555.38;;;9.81;100.00
19676;BME280;39539;52.202;9.876;2023-01-08T09:22:53;99566.72;;;10.12;100.00
19676;BME280;39539;52.202;9.876;2023-01-08T09:25:19;99562.47;;;10.11;100.00
19676;BME280;39539;52.202;9.876;2023-01-08T09:27:44;99559.22;;;10.09;100.00
19676;BME280;39539;52.202;9.876;2023-01-08T09:30:10;99558.75;;;10.12;100.00
19676;BME280;39539;52.202;9.876;2023-01-08T09:32:36;99566.41;;;10.32;100.00
19676;BME280;39539;52.202;9.876;2023-01-08T09:35:02;99551.84;;;10.34;100.00
19676;BME280;39539;52.202;9.876;2023-01-08T09:37:29;99567.78;;;10.34;100.00
19676;BME280;39539;52.202;9.876;2023-01-08T09:39:54;99545.03;;;10.27;100.00
19676;BME280;39539;52.202;9.876;2023-01-08T09:42:22;99553.00;;;10.39;100.00
19676;BME280;39539;52.202;9.876;2023-01-08T09:44:51;99542.94;;;10.17;100.00
19676;BME280;39539;52.202;9.876;2023-01-08T09:47:27;99544.09;;;10.09;100.00
19676;BME280;39539;52.202;9.876;2023-01-08T09:49:58;99549.63;;;9.96;100.00
19676;BME280;39539;52.202;9.876;2023-01-08T09:52:25;99559.56;;;9.89;100.00
19676;BME280;39539;52.202;9.876;2023-01-08T09:54:51;99540.03;;;9.72;100.00
19676;BME280;39539;52.202;9.876;2023-01-08T09:57:19;99532.53;;;9.57;100.00
19676;BME280;39539;52.202;9.876;2023-01-08T09:59:45;99549.00;;;9.59;100.00
19676;BME280;39539;52.202;9.876;2023-01-08T10:02:22;99526.78;;;9.60;100.00
19676;BME280;39539;52.202;9.876;2023-01-08T10:05:00;99537.47;;;9.53;100.00
19676;BME280;39539;52.202;9.876;2023-01-08T10:07:27;99529.75;;;9.52;100.00
19676;BME280;39539;52.202;9.876;2023-01-08T10:09:54;99545.81;;;9.69;100.00
19676;BME280;39539;52.202;9.876;2023-01-08T10:12:26;99540.25;;;9.70;100.00
19676;BME280;39539;52.202;9.876;2023-01-08T10:14:54;99528.84;;;9.70;100.00
19676;BME280;39539;52.202;9.876;2023-01-08T10:17:30;99537.47;;;9.65;100.00
19676;BME280;39539;52.202;9.876;2023-01-08T10:19:58;99518.81;;;9.60;100.00
19676;BME280;39539;52.202;9.876;2023-01-08T10:22:28;99538.19;;;9.72;100.00
19676;BME280;39539;52.202;9.876;2023-01-08T10:25:05;99527.13;;;9.75;100.00
19676;BME280;39539;52.202;9.876;2023-01-08T10:27:31;99514.91;;;9.74;100.00
19676;BME280;39539;52.202;9.876;2023-01-08T10:30:05;99504.16;;;9.81;100.00
19676;BME280;39539;52.202;9.876;2023-01-08T10:32:33;99506.00;;;9.92;100.00
19676;BME280;39539;52.202;9.876;2023-01-08T10:35:04;99509.25;;;9.94;100.00
19676;BME280;39539;52.202;9.876;2023-01-08T10:37:37;99509.81;;;9.96;100.00
19676;BME280;39539;52.202;9.876;2023-01-08T10:43:07;99519.88;;;10.06;100.00
19676;BME280;39539;52.202;9.876;2023-01-08T10:45:33;99504.75;;;9.95;100.00
19676;BME280;39539;52.202;9.876;2023-01-08T10:48:01;99513.97;;;10.04;100.00
19676;BME280;39539;52.202;9.876;2023-01-08T10:50:31;99501.75;;;10.03;100.00
19676;BME280;39539;52.202;9.876;2023-01-08T10:52:59;99501.75;;;10.03;100.00
19676;BME280;39539;52.202;9.876;2023-01-08T10:55:30;99503.94;;;10.06;100.00
19676;BME280;39539;52.202;9.876;2023-01-08T10:58:00;99495.50;;;10.09;100.00
19676;BME280;39539;52.202;9.876;2023-01-08T11:00:34;99489.13;;;10.10;100.00
19676;BME280;39539;52.202;9.876;2023-01-08T11:03:03;99492.16;;;10.14;100.00
19676;BME280;39539;52.202;9.876;2023-01-08T11:05:38;99480.34;;;10.21;100.00
19676;BME280;39539;52.202;9.876;2023-01-08T11:08:07;99463.94;;;10.24;100.00
19676;BME280;39539;52.202;9.876;2023-01-08T11:10:40;99441.69;;;10.25;100.00
19676;BME280;39539;52.202;9.876;2023-01-08T11:13:06;99451.47;;;10.48;100.00
19676;BME280;39539;52.202;9.876;2023-01-08T11:15:40;99459.84;;;10.57;100.00
19676;BME280;39539;52.202;9.876;2023-01-08T11:18:20;99446.41;;;10.64;100.00
19676;BME280;39539;52.202;9.876;2023-01-08T11:20:47;99440.47;;;10.56;100.00
19676;BME280;39539;52.202;9.876;2023-01-08T11:23:23;99445.53;;;10.58;100.00
19676;BME280;39539;52.202;9.876;2023-01-08T11:26:11;99434.72;;;10.48;100.00
19676;BME280;39539;52.202;9.876;2023-01-08T11:31:32;99429.44;;;10.24;100.00
19676;BME280;39539;52.202;9.876;2023-01-08T11:34:05;99429.22;;;10.14;100.00
19676;BME280;39539;52.202;9.876;2023-01-08T11:36:35;99429.34;;;10.07;100.00
19676;BME280;39539;52.202;9.876;2023-01-08T11:39:06;99424.94;;;10.13;100.00
19676;BME280;39539;52.202;9.876;2023-01-08T11:44:36;99411.88;;;10.23;100.00
19676;BME280;39539;52.202;9.876;2023-01-08T11:50:04;99410.84;;;10.24;100.00
19676;BME280;39539;52.202;9.876;2023-01-08T11:52:40;99408.47;;;10.11;100.00
19676;BME280;39539;52.202;9.876;2023-01-08T11:57:44;99410.53;;;10.09;100.00
19676;BME280;39539;52.202;9.876;2023-01-08T12:00:21;99397.50;;;10.07;100.00
19676;BME280;39539;52.202;9.876;2023-01-08T12:03:01;99394.75;;;10.02;100.00
19676;BME280;39539;52.202;9.876;2023-01-08T12:05:35;99394.88;;;9.96;100.00
19676;BME280;39539;52.202;9.876;2023-01-08T12:08:07;99394.19;;;9.88;100.00
19676;BME280;39539;52.202;9.876;2023-01-08T12:10:51;99383.44;;;9.95;100.00
19676;BME280;39539;52.202;9.876;2023-01-08T12:16:18;99365.47;;;9.74;100.00
19676;BME280;39539;52.202;9.876;2023-01-08T12:19:50;99362.75;;;9.69;100.00
19676;BME280;39539;52.202;9.876;2023-01-08T12:30:41;99352.59;;;9.42;100.00
19676;BME280;39539;52.202;9.876;2023-01-08T12:33:40;99351.00;;;9.41;100.00
19676;BME280;39539;52.202;9.876;2023-01-08T12:36:16;99356.41;;;9.58;100.00
19676;BME280;39539;52.202;9.876;2023-01-08T12:38:43;99347.03;;;9.67;100.00
19676;BME280;39539;52.202;9.876;2023-01-08T12:41:16;99349.34;;;9.75;100.00
19676;BME280;39539;52.202;9.876;2023-01-08T12:44:02;99348.88;;;9.66;100.00
19676;BME280;39539;52.202;9.876;2023-01-08T12:46:31;99342.53;;;9.67;100.00
19676;BME280;39539;52.202;9.876;2023-01-08T12:48:58;99338.75;;;9.63;100.00
19676;BME280;39539;52.202;9.876;2023-01-08T12:51:35;99330.22;;;9.50;100.00
19676;BME280;39539;52.202;9.876;2023-01-08T12:56:49;99320.19;;;9.52;100.00
19676;BME280;39539;52.202;9.876;2023-01-08T13:02:02;99311.75;;;9.66;100.00
19676;BME280;39539;52.202;9.876;2023-01-08T13:04:45;99298.69;;;9.65;100.00
19676;BME280;39539;52.202;9.876;2023-01-08T13:07:22;99300.44;;;9.59;100.00
19676;BME280;39539;52.202;9.876;2023-01-08T13:09:54;99297.94;;;9.53;100.00
19676;BME280;39539;52.202;9.876;2023-01-08T13:12:27;99308.53;;;9.53;100.00
19676;BME280;39539;52.202;9.876;2023-01-08T13:14:57;99297.16;;;9.40;100.00
19676;BME280;39539;52.202;9.876;2023-01-08T13:17:22;99297.81;;;9.48;100.00
19676;BME280;39539;52.202;9.876;2023-01-08T13:20:00;99295.75;;;9.50;100.00
19676;BME280;39539;52.202;9.876;2023-01-08T13:32:41;99273.91;;;9.71;100.00
19676;BME280;39539;52.202;9.876;2023-01-08T13:37:40;99269.94;;;9.74;100.00
19676;BME280;39539;52.202;9.876;2023-01-08T13:48:23;99255.44;;;9.24;100.00
19676;BME280;39539;52.202;9.876;2023-01-08T13:50:50;99257.88;;;9.26;100.00
19676;BME280;39539;52.202;9.876;2023-01-08T13:53:17;99248.16;;;9.19;100.00
19676;BME280;39539;52.202;9.876;2023-01-08T13:55:53;99250.59;;;9.21;100.00
19676;BME280;39539;52.202;9.876;2023-01-08T13:58:24;99256.09;;;9.31;100.00
19676;BME280;39539;52.202;9.876;2023-01-08T14:00:52;99262.78;;;9.46;100.00
19676;BME280;39539;52.202;9.876;2023-01-08T14:03:43;99250.44;;;9.39;100.00
19676;BME280;39539;52.202;9.876;2023-01-08T14:08:51;99248.88;;;9.27;100.00
19676;BME280;39539;52.202;9.876;2023-01-08T14:11:19;99251.50;;;9.38;100.00
19676;BME280;39539;52.202;9.876;2023-01-08T14:13:45;99259.88;;;9.47;100.00
19676;BME280;39539;52.202;9.876;2023-01-08T14:16:13;99252.63;;;9.42;100.00